TAF Text Data
IDs:
Format:
Raw Decoded Include METAR

Data at: 0623 UTC 24 Jan 2019

KROW 240551Z AUTO 22006KT 10SM CLR 01/M10 A2995 RMK AO2 SLP134 T00061100 10122 20006 58015

KROW 240535Z 2406/2506 25007KT P6SM FEW250
  FM240800 33010KT P6SM FEW250
  FM241200 36012G22KT P6SM SKC
  FM242200 04008KT P6SM SKC
  FM250400 16007KT P6SM SKC